Latest Weather Observations for Wyndham Airport

IDD60801

Issued at 10:51 pm CST Tuesday 23 July 2019 (issued every 10 minutes, with the page automatically refreshed every 10 minutes)

About weather observations | Map of weather stations | Latest weather observations for NT | Other Formats
Station Details ID: 001006 Name: WYNDHAM AERO Lat: -15.51 Lon: 128.15 Height: 3.8 m
Data from the previous 72 hours. | See also: Recent months at Wyndham Airport
Date/Time
CST
Temp
°C
App
Temp
°C
Dew
Point
°C
Rel
Hum
%
Delta-T
°C
Wind Press
QNH
hPa
Press
MSL
hPa
Rain since
9am
mm
Dir  Spd
km/h
Gust
km/h
Spd
kts
Gust
kts
23/10:30pm 20.7 18.4 4.7 35 7.8 S 6 9 3 5 1014.8 1014.8 0.0
23/10:00pm 21.0 18.1 4.6 34 8.0 NE 9 13 5 7 1014.6 1014.6 0.0
23/09:30pm 23.4 21.0 5.3 31 9.1 NE 7 9 4 5 1014.4 1014.4 0.0
23/09:00pm 23.2 21.5 4.2 29 9.3 NE 2 7 1 4 1014.0 1014.0 0.0
23/08:30pm 25.6 24.1 5.2 27 10.4 NE 2 6 1 3 1013.8 1013.8 0.0
23/08:00pm 27.1 24.0 5.4 25 11.2 N 11 15 6 8 1013.5 1013.5 0.0
23/07:30pm 28.1 23.9 5.6 24 11.7 N 17 20 9 11 1013.0 1013.0 0.0
23/07:00pm 28.4 24.5 5.3 23 12.0 N 15 24 8 13 1012.7 1012.7 0.0
23/06:30pm 29.8 26.0 5.8 22 12.6 N 15 20 8 11 1012.3 1012.3 0.0
23/06:00pm 31.3 27.8 7.1 22 13.1 N 15 20 8 11 1011.9 1011.9 0.0
23/05:30pm 32.1 27.8 7.0 21 13.7 N 19 26 10 14 1011.6 1011.6 0.0
23/05:00pm 32.9 28.8 6.2 19 14.4 NNW 17 26 9 14 1011.4 1011.4 0.0
23/04:30pm 33.4 29.2 7.4 20 14.3 N 19 26 10 14 1011.3 1011.3 0.0
23/04:00pm 34.1 30.1 2.8 14 16.1 ESE 13 20 7 11 1011.2 1011.2 0.0
23/03:30pm 34.6 30.7 3.2 14 16.3 NE 13 24 7 13 1011.5 1011.5 0.0
23/03:00pm 34.3 30.3 3.0 14 16.2 ENE 13 26 7 14 1011.8 1011.8 0.0
23/02:30pm 33.9 29.3 3.7 15 15.7 ENE 17 30 9 16 1012.3 1012.3 0.0
23/02:00pm 34.1 30.4 4.7 16 15.6 NNE 13 19 7 10 1012.8 1012.8 0.0
23/01:30pm 33.2 29.4 5.7 18 14.7 NE 15 22 8 12 1013.4 1013.4 0.0
23/01:00pm 32.4 29.0 5.8 19 14.2 ESE 13 24 7 13 1014.0 1014.0 0.0
23/12:30pm 32.6 29.3 8.1 22 13.6 NE 15 26 8 14 1014.7 1014.7 0.0
23/12:00pm 31.1 27.8 8.2 24 12.6 ENE 15 24 8 13 1015.2 1015.2 0.0
23/11:30am 31.0 28.0 9.3 26 12.2 E 15 20 8 11 1015.7 1015.7 0.0
23/11:00am 29.4 26.8 9.5 29 11.1 ESE 13 19 7 10 1015.9 1015.9 0.0
23/10:30am 28.5 27.4 12.0 36 9.6 ESE 9 15 5 8 1016.0 1016.0 0.0
23/10:00am 25.4 25.5 13.9 49 6.8 SW 6 7 3 4 1016.1 1016.1 0.0
23/09:30am 23.2 23.1 13.4 54 5.7 ESE 6 7 3 4 1015.8 1015.8 0.0
23/09:00am 22.0 22.5 12.8 56 5.2 ESE 2 7 1 4 1015.4 1015.4 0.0
23/08:30am 20.6 22.0 14.3 67 3.7 CALM 0 0 0 0 1015.0 1015.0 0.0
23/08:00am 18.5 19.0 15.0 80 2.0 ESE 6 7 3 4 1014.6 1014.6 0.0
23/07:30am 18.2 18.5 14.9 81 1.9 ESE 7 9 4 5 1014.3 1014.3 0.0
23/07:00am 17.5 16.8 14.2 81 1.9 ESE 11 15 6 8 1014.1 1014.1 0.0
23/06:30am 18.3 16.8 14.2 77 2.4 E 15 17 8 9 1014.0 1014.0 0.0
23/06:00am 17.6 15.8 12.1 70 3.0 ESE 13 15 7 8 1013.9 1013.9 0.0
23/05:30am 18.4 17.8 11.7 65 3.7 WNW 6 9 3 5 1013.5 1013.5 0.0
23/05:00am 17.8 16.3 11.8 68 3.3 E 11 13 6 7 1013.0 1013.0 0.0
23/04:30am 17.7 16.7 11.0 65 3.6 E 7 9 4 5 1013.0 1013.0 0.0
23/04:00am 18.7 18.3 12.5 67 3.5 E 6 7 3 4 1012.8 1012.8 0.0
23/03:30am 18.4 17.6 11.0 62 4.0 E 6 7 3 4 1012.8 1012.8 0.0
23/03:00am 18.2 17.2 11.0 63 3.9 E 7 7 4 4 1013.0 1013.0 0.0
23/02:30am 19.4 20.3 15.1 76 2.5 E 4 6 2 3 1013.4 1013.4 0.0
23/02:00am 19.3 19.1 14.6 74 2.7 E 9 13 5 7 1013.7 1013.7 0.0
23/01:30am 19.1 18.1 13.3 69 3.3 E 11 13 6 7 1013.7 1013.7 0.0
23/01:00am 19.9 19.0 12.7 63 4.1 E 9 11 5 6 1013.5 1013.5 0.0
23/12:30am 21.0 20.6 14.2 65 4.0 E 9 13 5 7 1013.4 1013.4 0.0
23/12:00am 21.3 21.1 13.0 59 4.7 SSE 6 9 3 5 1013.3 1013.3 0.0
 
Date/Time
CST
Temp
°C
App
Temp
°C
Dew
Point
°C
Rel
Hum
%
Delta-T
°C
Wind Press
QNH
hPa
Press
MSL
hPa
Rain since
9am
mm
Dir  Spd
km/h
Gust
km/h
Spd
kts
Gust
kts
22/11:30pm 23.0 21.8 12.9 53 5.8 S 11 13 6 7 1013.2 1013.2 0.0
22/11:00pm 23.9 22.2 12.5 49 6.5 S 13 15 7 8 1012.9 1012.9 0.0
22/10:30pm 23.8 22.1 9.8 41 7.6 SSE 9 11 5 6 1012.8 1012.8 0.0
22/10:00pm 25.7 23.7 10.3 38 8.6 SSE 11 17 6 9 1012.7 1012.7 0.0
22/09:30pm 26.6 24.3 9.0 33 9.6 NNW 11 17 6 9 1012.5 1012.5 0.0
22/09:00pm 26.6 24.8 9.5 34 9.4 SE 9 15 5 8 1012.2 1012.2 0.0
22/08:30pm 27.3 25.2 9.6 33 9.8 N 11 15 6 8 1011.6 1011.6 0.0
22/08:00pm 28.4 25.3 7.1 26 11.4 N 13 19 7 10 1011.3 1011.3 0.0
22/07:30pm 29.1 25.7 7.7 26 11.6 N 15 20 8 11 1010.7 1010.7 0.0
22/07:00pm 29.2 26.8 8.8 28 11.3 N 11 15 6 8 1010.5 1010.5 0.0
22/06:30pm 30.5 27.3 8.3 25 12.2 N 15 20 8 11 1010.4 1010.4 0.0
22/06:00pm 32.0 28.9 8.9 24 12.9 N 15 19 8 10 1010.3 1010.3 0.0
22/05:30pm 33.0 29.5 7.1 20 14.2 NW 15 20 8 11 1010.2 1010.2 0.0
22/05:00pm 33.1 30.6 9.8 24 13.3 NNW 13 20 7 11 1010.0 1010.0 0.0
22/04:30pm 33.4 30.8 9.4 23 13.7 NNW 13 24 7 13 1009.8 1009.8 0.0
22/04:00pm 33.8 31.0 8.4 21 14.2 WNW 13 20 7 11 1009.8 1009.8 0.0
22/03:30pm 34.1 31.7 8.7 21 14.4 NNW 11 19 6 10 1010.0 1010.0 0.0
22/03:00pm 33.4 30.4 9.4 23 13.6 W 15 20 8 11 1010.2 1010.2 0.0
22/02:30pm 33.2 31.5 11.1 26 12.9 WSW 11 17 6 9 1010.5 1010.5 0.0
22/02:00pm 32.2 30.6 11.4 28 12.1 WSW 11 17 6 9 1011.1 1011.1 0.0
22/01:30pm 32.0 30.5 10.7 27 12.3 NW 9 15 5 8 1011.8 1011.8 0.0
22/01:00pm 31.2 30.3 12.5 31 11.1 WNW 9 15 5 8 1012.3 1012.3 0.0
22/12:30pm 30.9 30.1 12.8 33 10.7 W 9 15 5 8 1012.8 1012.8 0.0
22/12:00pm 29.6 29.5 15.0 41 8.9 W 9 13 5 7 1013.3 1013.3 0.0
22/11:30am 28.3 28.7 15.2 44 8.0 W 7 11 4 6 1013.8 1013.8 0.0
22/11:00am 27.5 27.9 15.2 47 7.5 WNW 7 11 4 6 1014.3 1014.3 0.0
22/10:30am 26.8 27.7 15.2 49 7.0 SE 4 7 2 4 1014.5 1014.5 0.0
22/10:00am 24.8 24.8 15.1 54 5.8 ESE 9 13 5 7 1014.5 1014.5 0.0
22/09:30am 23.3 22.6 16.4 65 4.2 ESE 15 19 8 10 1014.5 1014.5 0.0
22/09:00am 21.4 21.7 17.0 76 2.7 ESE 11 15 6 8 1014.1 1014.1 0.0
22/08:30am 19.3 19.6 16.0 81 2.0 E 9 13 5 7 1013.7 1013.7 0.0
22/08:00am 18.1 18.5 16.4 90 1.0 E 9 9 5 5 1013.3 1013.3 0.0
22/07:30am 16.2 16.1 14.0 87 1.2 E 7 11 4 6 1013.0 1013.0 0.0
22/07:00am 15.9 15.8 13.2 84 1.5 E 6 7 3 4 1012.7 1012.7 0.0
22/06:30am 16.5 15.7 14.0 85 1.4 E 11 15 6 8 1012.4 1012.4 0.0
22/06:00am 17.3 16.0 13.8 80 2.0 E 13 15 7 8 1012.2 1012.2 0.0
22/05:30am 16.4 15.7 10.0 66 3.4 E 4 13 2 7 1012.0 1012.0 0.0
22/05:00am 18.3 19.1 12.7 70 3.1 CALM 0 0 0 0 1011.9 1011.9 0.0
22/04:30am 17.8 17.0 11.8 68 3.3 E 7 7 4 4 1011.8 1011.8 0.0
22/04:00am 17.3 16.3 10.9 66 3.4 E 7 9 4 5 1011.8 1011.8 0.0
22/03:30am 18.1 19.3 13.8 76 2.5 CALM 0 0 0 0 1011.8 1011.8 0.0
22/03:00am 17.3 17.7 11.1 67 3.3 CALM 0 0 0 0 1012.1 1012.1 0.0
22/02:30am 17.8 17.3 12.7 72 2.8 E 7 9 4 5 1012.3 1012.3 0.0
22/02:00am 18.1 19.2 13.4 74 2.7 CALM 0 0 0 0 1012.2 1012.2 0.0
22/01:30am 18.7 18.8 14.4 76 2.5 E 7 11 4 6 1012.2 1012.2 0.0
22/01:00am 19.6 18.3 14.8 74 2.8 E 15 20 8 11 1011.7 1011.7 0.0
22/12:30am 20.2 18.5 14.6 70 3.3 ESE 17 19 9 10 1011.6 1011.6 0.0
22/12:00am 20.6 18.6 14.0 66 3.8 E 17 19 9 10 1011.6 1011.6 0.0
 
Date/Time
CST
Temp
°C
App
Temp
°C
Dew
Point
°C
Rel
Hum
%
Delta-T
°C
Wind Press
QNH
hPa
Press
MSL
hPa
Rain since
9am
mm
Dir  Spd
km/h
Gust
km/h
Spd
kts
Gust
kts
21/11:30pm 21.1 19.7 13.5 62 4.4 E 13 17 7 9 1011.9 1011.9 0.0
21/11:00pm 23.2 21.4 13.4 54 5.7 ESE 15 19 8 10 1012.0 1012.0 0.0
21/10:30pm 23.8 21.2 13.1 51 6.2 SE 19 20 10 11 1012.1 1012.1 0.0
21/10:00pm 24.0 22.1 11.7 46 6.9 SE 13 17 7 9 1012.1 1012.1 0.0
21/09:30pm 24.7 23.0 8.2 35 8.8 N 7 13 4 7 1011.9 1011.9 0.0
21/09:00pm 27.1 24.8 9.0 32 9.9 NNE 11 15 6 8 1011.7 1011.7 0.0
21/08:30pm 25.9 24.1 8.0 32 9.6 NNE 7 13 4 7 1011.4 1011.4 0.0
21/08:00pm 26.1 24.6 10.7 38 8.6 NNW 9 11 5 6 1011.1 1011.1 0.0
21/07:30pm 27.0 25.7 11.1 37 9.0 NNW 9 11 5 6 1010.7 1010.7 0.0
21/07:00pm 28.2 26.1 11.3 35 9.7 NNW 13 17 7 9 1010.4 1010.4 0.0
21/06:30pm 29.5 26.8 9.1 28 11.3 NW 13 15 7 8 1010.1 1010.1 0.0
21/06:00pm 31.1 27.6 8.8 25 12.4 NNW 17 20 9 11 1009.8 1009.8 0.0
21/05:30pm 32.1 28.3 9.0 24 13.0 N 19 22 10 12 1009.6 1009.6 0.0
21/05:00pm 33.1 30.1 9.2 23 13.5 N 15 20 8 11 1009.5 1009.5 0.0
21/04:30pm 33.1 30.7 8.5 22 13.8 NNE 11 17 6 9 1009.5 1009.5 0.0
21/04:00pm 33.4 30.9 8.1 21 14.1 NE 11 20 6 11 1009.7 1009.7 0.0
21/03:30pm 33.3 30.9 8.7 22 13.8 NNE 11 19 6 10 1010.0 1010.0 0.0
21/03:00pm 33.0 30.7 9.1 23 13.5 NNE 11 26 6 14 1010.4 1010.4 0.0
21/02:30pm 32.4 30.0 8.6 23 13.3 N 11 19 6 10 1010.9 1010.9 0.0
21/02:00pm 32.8 29.2 8.3 22 13.7 N 17 24 9 13 1011.4 1011.4 0.0
21/01:30pm 32.7 30.3 10.1 25 13.0 NNE 13 22 7 12 1012.0 1012.0 0.0
21/01:00pm 31.8 28.4 9.3 25 12.7 N 17 22 9 12 1012.6 1012.6 0.0
21/12:30pm 31.6 29.2 8.6 24 12.8 NNW 11 19 6 10 1013.2 1013.2 0.0
21/12:00pm 30.3 27.2 8.7 26 12.0 ENE 15 19 8 10 1013.6 1013.6 0.0
21/11:30am 29.5 27.2 9.1 28 11.3 NE 11 15 6 8 1013.9 1013.9 0.0
21/11:00am 28.4 25.9 9.6 31 10.5 E 13 17 7 9 1014.3 1014.3 0.0
21/10:30am 26.9 24.8 9.7 34 9.5 ESE 11 17 6 9 1014.5 1014.5 0.0
21/10:00am 24.7 22.4 10.6 41 7.8 ESE 13 15 7 8 1014.5 1014.5 0.0
21/09:30am 23.6 21.9 12.6 50 6.3 ESE 13 15 7 8 1014.5 1014.5 0.0
21/09:00am 22.1 19.8 10.3 47 6.4 ESE 13 15 7 8 1014.3 1014.3 0.0
21/08:30am 19.6 18.0 10.3 55 5.0 E 9 11 5 6 1014.0 1014.0 0.0
21/08:00am 16.4 13.8 9.3 63 3.7 ESE 13 13 7 7 1013.8 1013.8 0.0
21/07:30am 15.4 13.4 8.6 64 3.5 E 9 11 5 6 1013.4 1013.4 0.0
21/07:00am 16.3 13.6 9.0 62 3.8 E 13 15 7 8 1013.3 1013.3 0.0
21/06:30am 15.8 12.5 8.1 60 3.9 ESE 15 17 8 9 1013.2 1013.2 0.0
21/06:00am 16.6 15.9 7.0 53 4.8 CALM 0 0 0 0 1012.8 1012.8 0.0
21/05:30am 17.4 15.7 7.5 52 5.0 SSW 6 6 3 3 1012.6 1012.6 0.0
21/05:00am 17.1 14.7 6.9 51 5.1 SSW 9 11 5 6 1012.4 1012.4 0.0
21/04:30am 16.7 14.4 7.4 54 4.6 SSW 9 11 5 6 1012.5 1012.5 0.0
21/04:00am 16.8 14.7 6.6 51 5.0 SSW 7 9 4 5 1012.5 1012.5 0.0
21/03:30am 18.8 17.9 9.3 54 5.0 SSW 4 6 2 3 1012.6 1012.6 0.0
21/03:00am 17.3 15.8 8.4 56 4.6 SSW 6 6 3 3 1012.7 1012.7 0.0
21/02:30am 18.6 16.7 7.7 49 5.5 ESE 7 9 4 5 1012.6 1012.6 0.0
21/02:00am 17.7 16.3 7.4 51 5.2 ESE 4 9 2 5 1012.7 1012.7 0.0
21/01:30am 19.6 16.9 8.9 50 5.6 E 13 15 7 8 1012.9 1012.9 0.0
21/01:00am 20.5 17.5 9.4 49 5.9 E 15 17 8 9 1013.0 1013.0 0.0
21/12:30am 20.6 17.2 9.2 48 6.0 E 17 19 9 10 1013.2 1013.2 0.0

Other formats

Comma delimited format used in spreadsheet applications
http://www.bom.gov.au/fwo/IDD60801/IDD60801.95214.axf

JavaScript Object Notation format (JSON) in row-major order
http://www.bom.gov.au/fwo/IDD60801/IDD60801.95214.json

Data quality

Most of these data are generated automatically and are frequently updated. Quality checks on data are not normally performed. It is possible for incorrect values to appear. Refer to information at About Latest Weather Observations and please check the disclaimer before using these data.